sensor_id;sensor_type;location;lat;lon;timestamp;P1;durP1;ratioP1;P2;durP2;ratioP2
11384;SDS011;5747;56.748;13.882;2023-09-19T00:00:39;25.60;;;20.53;;
11384;SDS011;5747;56.748;13.882;2023-09-19T00:03:08;25.70;;;20.60;;
11384;SDS011;5747;56.748;13.882;2023-09-19T00:05:38;27.80;;;19.43;;
11384;SDS011;5747;56.748;13.882;2023-09-19T00:08:12;27.20;;;19.83;;
11384;SDS011;5747;56.748;13.882;2023-09-19T00:10:42;25.20;;;20.07;;
11384;SDS011;5747;56.748;13.882;2023-09-19T00:13:11;26.03;;;19.17;;
11384;SDS011;5747;56.748;13.882;2023-09-19T00:15:42;32.20;;;19.23;;
11384;SDS011;5747;56.748;13.882;2023-09-19T00:18:15;24.20;;;18.50;;
11384;SDS011;5747;56.748;13.882;2023-09-19T00:20:45;25.17;;;18.13;;
11384;SDS011;5747;56.748;13.882;2023-09-19T00:23:18;23.57;;;17.90;;
11384;SDS011;5747;56.748;13.882;2023-09-19T00:25:48;22.30;;;18.80;;
11384;SDS011;5747;56.748;13.882;2023-09-19T00:28:17;21.43;;;17.53;;
11384;SDS011;5747;56.748;13.882;2023-09-19T00:30:46;21.07;;;17.63;;
11384;SDS011;5747;56.748;13.882;2023-09-19T00:33:17;24.30;;;18.03;;
11384;SDS011;5747;56.748;13.882;2023-09-19T00:35:46;24.27;;;17.87;;
11384;SDS011;5747;56.748;13.882;2023-09-19T00:38:15;21.40;;;17.30;;
11384;SDS011;5747;56.748;13.882;2023-09-19T00:40:44;18.80;;;16.17;;
11384;SDS011;5747;56.748;13.882;2023-09-19T00:43:13;21.33;;;17.37;;
11384;SDS011;5747;56.748;13.882;2023-09-19T00:45:43;19.97;;;15.43;;
11384;SDS011;5747;56.748;13.882;2023-09-19T00:48:14;19.70;;;16.33;;
11384;SDS011;5747;56.748;13.882;2023-09-19T00:50:46;19.67;;;16.27;;
11384;SDS011;5747;56.748;13.882;2023-09-19T00:53:17;22.20;;;17.83;;
11384;SDS011;5747;56.748;13.882;2023-09-19T00:55:47;23.90;;;17.10;;
11384;SDS011;5747;56.748;13.882;2023-09-19T00:58:18;23.13;;;17.73;;
11384;SDS011;5747;56.748;13.882;2023-09-19T01:00:47;23.33;;;17.53;;
11384;SDS011;5747;56.748;13.882;2023-09-19T01:03:16;22.53;;;17.30;;
11384;SDS011;5747;56.748;13.882;2023-09-19T01:05:45;22.23;;;18.03;;
11384;SDS011;5747;56.748;13.882;2023-09-19T01:08:13;26.07;;;18.43;;
11384;SDS011;5747;56.748;13.882;2023-09-19T01:10:44;23.30;;;18.07;;
11384;SDS011;5747;56.748;13.882;2023-09-19T01:13:22;21.43;;;17.80;;
11384;SDS011;5747;56.748;13.882;2023-09-19T01:16:02;20.30;;;18.13;;
11384;SDS011;5747;56.748;13.882;2023-09-19T01:18:40;23.03;;;18.33;;
11384;SDS011;5747;56.748;13.882;2023-09-19T01:21:15;25.30;;;18.23;;
11384;SDS011;5747;56.748;13.882;2023-09-19T01:29:52;19.80;;;17.70;;
11384;SDS011;5747;56.748;13.882;2023-09-19T01:32:22;26.70;;;19.07;;
11384;SDS011;5747;56.748;13.882;2023-09-19T01:34:53;31.10;;;21.10;;
11384;SDS011;5747;56.748;13.882;2023-09-19T01:37:24;27.80;;;21.10;;
11384;SDS011;5747;56.748;13.882;2023-09-19T01:39:54;31.67;;;22.27;;
11384;SDS011;5747;56.748;13.882;2023-09-19T01:42:35;28.03;;;21.10;;
11384;SDS011;5747;56.748;13.882;2023-09-19T01:45:11;28.10;;;21.53;;
11384;SDS011;5747;56.748;13.882;2023-09-19T01:47:46;29.43;;;21.30;;
11384;SDS011;5747;56.748;13.882;2023-09-19T01:50:20;28.47;;;20.90;;
11384;SDS011;5747;56.748;13.882;2023-09-19T01:52:59;25.03;;;19.73;;
11384;SDS011;5747;56.748;13.882;2023-09-19T01:55:33;24.17;;;19.00;;
11384;SDS011;5747;56.748;13.882;2023-09-19T01:58:12;24.63;;;19.27;;
11384;SDS011;5747;56.748;13.882;2023-09-19T02:00:46;24.53;;;18.67;;
11384;SDS011;5747;56.748;13.882;2023-09-19T02:03:19;22.50;;;16.80;;
11384;SDS011;5747;56.748;13.882;2023-09-19T02:05:50;23.67;;;16.80;;
11384;SDS011;5747;56.748;13.882;2023-09-19T02:08:20;23.53;;;16.77;;
11384;SDS011;5747;56.748;13.882;2023-09-19T02:10:50;24.70;;;16.90;;
11384;SDS011;5747;56.748;13.882;2023-09-19T02:13:20;26.17;;;16.77;;
11384;SDS011;5747;56.748;13.882;2023-09-19T02:15:50;24.30;;;16.17;;
11384;SDS011;5747;56.748;13.882;2023-09-19T02:18:20;22.13;;;16.23;;
11384;SDS011;5747;56.748;13.882;2023-09-19T02:20:48;21.53;;;15.90;;
11384;SDS011;5747;56.748;13.882;2023-09-19T02:23:17;19.17;;;14.63;;
11384;SDS011;5747;56.748;13.882;2023-09-19T02:25:51;17.10;;;14.83;;
11384;SDS011;5747;56.748;13.882;2023-09-19T02:28:20;20.13;;;14.63;;
11384;SDS011;5747;56.748;13.882;2023-09-19T02:30:50;18.53;;;14.23;;
11384;SDS011;5747;56.748;13.882;2023-09-19T02:33:19;18.17;;;14.70;;
11384;SDS011;5747;56.748;13.882;2023-09-19T02:35:54;18.70;;;13.97;;
11384;SDS011;5747;56.748;13.882;2023-09-19T02:38:24;18.17;;;12.97;;
11384;SDS011;5747;56.748;13.882;2023-09-19T02:40:52;16.20;;;13.57;;
11384;SDS011;5747;56.748;13.882;2023-09-19T02:43:21;21.73;;;13.47;;
11384;SDS011;5747;56.748;13.882;2023-09-19T02:45:50;18.50;;;12.60;;
11384;SDS011;5747;56.748;13.882;2023-09-19T02:48:21;19.47;;;12.27;;
11384;SDS011;5747;56.748;13.882;2023-09-19T02:50:49;17.47;;;13.57;;
11384;SDS011;5747;56.748;13.882;2023-09-19T02:53:18;16.20;;;13.13;;
11384;SDS011;5747;56.748;13.882;2023-09-19T02:55:46;19.77;;;14.03;;
11384;SDS011;5747;56.748;13.882;2023-09-19T02:58:15;20.57;;;12.93;;
11384;SDS011;5747;56.748;13.882;2023-09-19T03:00:46;18.57;;;13.07;;
11384;SDS011;5747;56.748;13.882;2023-09-19T03:03:18;21.33;;;14.30;;
11384;SDS011;5747;56.748;13.882;2023-09-19T03:05:47;18.97;;;14.10;;
11384;SDS011;5747;56.748;13.882;2023-09-19T03:08:20;21.53;;;13.60;;
11384;SDS011;5747;56.748;13.882;2023-09-19T03:10:48;20.33;;;13.93;;
11384;SDS011;5747;56.748;13.882;2023-09-19T03:13:17;17.17;;;13.23;;
11384;SDS011;5747;56.748;13.882;2023-09-19T03:15:46;15.83;;;12.13;;
11384;SDS011;5747;56.748;13.882;2023-09-19T03:18:21;18.70;;;12.23;;
11384;SDS011;5747;56.748;13.882;2023-09-19T03:20:53;16.80;;;12.63;;
11384;SDS011;5747;56.748;13.882;2023-09-19T03:23:22;17.97;;;11.40;;
11384;SDS011;5747;56.748;13.882;2023-09-19T03:25:52;13.07;;;10.90;;
11384;SDS011;5747;56.748;13.882;2023-09-19T03:28:20;15.53;;;11.57;;
11384;SDS011;5747;56.748;13.882;2023-09-19T03:30:57;16.17;;;10.63;;
11384;SDS011;5747;56.748;13.882;2023-09-19T03:33:27;14.30;;;11.30;;
11384;SDS011;5747;56.748;13.882;2023-09-19T03:36:00;13.30;;;9.80;;
11384;SDS011;5747;56.748;13.882;2023-09-19T03:38:31;15.53;;;10.20;;
11384;SDS011;5747;56.748;13.882;2023-09-19T03:41:00;12.40;;;9.23;;
11384;SDS011;5747;56.748;13.882;2023-09-19T03:43:29;13.10;;;9.63;;
11384;SDS011;5747;56.748;13.882;2023-09-19T03:46:00;10.77;;;9.60;;
11384;SDS011;5747;56.748;13.882;2023-09-19T03:48:31;12.00;;;8.70;;
11384;SDS011;5747;56.748;13.882;2023-09-19T03:51:02;11.17;;;8.67;;
11384;SDS011;5747;56.748;13.882;2023-09-19T03:53:31;14.37;;;9.23;;
11384;SDS011;5747;56.748;13.882;2023-09-19T03:55:59;15.57;;;8.70;;
11384;SDS011;5747;56.748;13.882;2023-09-19T03:58:30;13.83;;;8.30;;
11384;SDS011;5747;56.748;13.882;2023-09-19T04:01:00;8.93;;;7.20;;
11384;SDS011;5747;56.748;13.882;2023-09-19T04:03:28;9.17;;;7.00;;
11384;SDS011;5747;56.748;13.882;2023-09-19T04:06:03;7.47;;;6.23;;
11384;SDS011;5747;56.748;13.882;2023-09-19T04:08:32;9.57;;;6.57;;
11384;SDS011;5747;56.748;13.882;2023-09-19T04:11:00;9.33;;;6.60;;
11384;SDS011;5747;56.748;13.882;2023-09-19T04:13:28;9.33;;;6.90;;
11384;SDS011;5747;56.748;13.882;2023-09-19T04:15:56;9.33;;;6.77;;
11384;SDS011;5747;56.748;13.882;2023-09-19T04:18:25;8.10;;;6.10;;
11384;SDS011;5747;56.748;13.882;2023-09-19T04:20:53;7.03;;;5.60;;
11384;SDS011;5747;56.748;13.882;2023-09-19T04:23:24;8.70;;;6.03;;
11384;SDS011;5747;56.748;13.882;2023-09-19T04:25:52;7.20;;;5.20;;
11384;SDS011;5747;56.748;13.882;2023-09-19T04:28:20;7.93;;;4.80;;
11384;SDS011;5747;56.748;13.882;2023-09-19T04:30:49;8.33;;;4.73;;
11384;SDS011;5747;56.748;13.882;2023-09-19T04:33:17;5.33;;;4.20;;
11384;SDS011;5747;56.748;13.882;2023-09-19T04:35:48;8.17;;;4.17;;
11384;SDS011;5747;56.748;13.882;2023-09-19T04:38:17;5.80;;;4.03;;
11384;SDS011;5747;56.748;13.882;2023-09-19T04:40:46;9.23;;;4.70;;
11384;SDS011;5747;56.748;13.882;2023-09-19T04:43:15;5.73;;;4.13;;
11384;SDS011;5747;56.748;13.882;2023-09-19T04:45:43;6.90;;;4.30;;
11384;SDS011;5747;56.748;13.882;2023-09-19T04:48:13;7.63;;;4.37;;
11384;SDS011;5747;56.748;13.882;2023-09-19T04:50:42;5.00;;;4.00;;
11384;SDS011;5747;56.748;13.882;2023-09-19T04:53:10;5.10;;;4.00;;
11384;SDS011;5747;56.748;13.882;2023-09-19T04:55:39;4.90;;;3.43;;
11384;SDS011;5747;56.748;13.882;2023-09-19T04:58:08;10.00;;;4.07;;
11384;SDS011;5747;56.748;13.882;2023-09-19T05:00:37;5.60;;;3.33;;
11384;SDS011;5747;56.748;13.882;2023-09-19T05:03:05;5.57;;;3.30;;
11384;SDS011;5747;56.748;13.882;2023-09-19T05:05:35;5.83;;;3.57;;
11384;SDS011;5747;56.748;13.882;2023-09-19T05:08:05;5.03;;;3.60;;
11384;SDS011;5747;56.748;13.882;2023-09-19T05:10:35;6.43;;;3.30;;
11384;SDS011;5747;56.748;13.882;2023-09-19T05:13:04;7.40;;;3.27;;
11384;SDS011;5747;56.748;13.882;2023-09-19T05:15:35;8.50;;;3.17;;
11384;SDS011;5747;56.748;13.882;2023-09-19T05:18:03;6.77;;;3.23;;
11384;SDS011;5747;56.748;13.882;2023-09-19T05:20:32;8.53;;;3.90;;
11384;SDS011;5747;56.748;13.882;2023-09-19T05:23:05;5.33;;;3.60;;
11384;SDS011;5747;56.748;13.882;2023-09-19T05:25:39;6.90;;;3.50;;
11384;SDS011;5747;56.748;13.882;2023-09-19T05:28:08;4.80;;;3.30;;
11384;SDS011;5747;56.748;13.882;2023-09-19T05:30:40;9.07;;;3.57;;
11384;SDS011;5747;56.748;13.882;2023-09-19T05:33:12;5.27;;;2.80;;
11384;SDS011;5747;56.748;13.882;2023-09-19T05:35:40;3.97;;;3.00;;
11384;SDS011;5747;56.748;13.882;2023-09-19T05:38:08;6.93;;;3.07;;
11384;SDS011;5747;56.748;13.882;2023-09-19T05:40:39;4.70;;;3.20;;
11384;SDS011;5747;56.748;13.882;2023-09-19T05:43:08;5.67;;;3.13;;
11384;SDS011;5747;56.748;13.882;2023-09-19T05:45:37;6.00;;;3.00;;
11384;SDS011;5747;56.748;13.882;2023-09-19T05:48:11;4.67;;;2.90;;
11384;SDS011;5747;56.748;13.882;2023-09-19T05:50:43;6.00;;;3.00;;
11384;SDS011;5747;56.748;13.882;2023-09-19T05:53:13;4.40;;;3.17;;
11384;SDS011;5747;56.748;13.882;2023-09-19T05:55:41;5.20;;;3.10;;
11384;SDS011;5747;56.748;13.882;2023-09-19T05:58:10;5.20;;;2.27;;
11384;SDS011;5747;56.748;13.882;2023-09-19T06:00:40;5.83;;;2.30;;
11384;SDS011;5747;56.748;13.882;2023-09-19T06:03:12;6.40;;;2.03;;
11384;SDS011;5747;56.748;13.882;2023-09-19T06:05:41;2.70;;;1.80;;
11384;SDS011;5747;56.748;13.882;2023-09-19T06:08:09;5.43;;;2.20;;
11384;SDS011;5747;56.748;13.882;2023-09-19T06:10:38;6.27;;;2.00;;
11384;SDS011;5747;56.748;13.882;2023-09-19T06:13:06;4.03;;;2.07;;
11384;SDS011;5747;56.748;13.882;2023-09-19T06:15:36;2.47;;;1.70;;
11384;SDS011;5747;56.748;13.882;2023-09-19T06:18:10;6.00;;;2.00;;
11384;SDS011;5747;56.748;13.882;2023-09-19T06:20:46;6.40;;;2.40;;
11384;SDS011;5747;56.748;13.882;2023-09-19T06:23:15;2.97;;;2.00;;
11384;SDS011;5747;56.748;13.882;2023-09-19T06:25:43;5.23;;;2.03;;
11384;SDS011;5747;56.748;13.882;2023-09-19T06:28:11;4.80;;;2.07;;
11384;SDS011;5747;56.748;13.882;2023-09-19T06:30:40;3.90;;;1.93;;
11384;SDS011;5747;56.748;13.882;2023-09-19T06:33:09;5.57;;;2.00;;
11384;SDS011;5747;56.748;13.882;2023-09-19T06:35:39;7.30;;;2.47;;
11384;SDS011;5747;56.748;13.882;2023-09-19T06:38:08;4.90;;;2.20;;
11384;SDS011;5747;56.748;13.882;2023-09-19T06:40:39;4.40;;;2.10;;
11384;SDS011;5747;56.748;13.882;2023-09-19T06:43:09;5.87;;;2.00;;
11384;SDS011;5747;56.748;13.882;2023-09-19T06:45:38;4.47;;;2.07;;
11384;SDS011;5747;56.748;13.882;2023-09-19T06:48:06;3.97;;;1.90;;
11384;SDS011;5747;56.748;13.882;2023-09-19T06:50:36;5.93;;;2.10;;
11384;SDS011;5747;56.748;13.882;2023-09-19T06:53:06;2.60;;;1.73;;
11384;SDS011;5747;56.748;13.882;2023-09-19T06:55:36;2.63;;;1.80;;
11384;SDS011;5747;56.748;13.882;2023-09-19T06:58:04;4.20;;;2.10;;
11384;SDS011;5747;56.748;13.882;2023-09-19T07:00:34;3.33;;;1.80;;
11384;SDS011;5747;56.748;13.882;2023-09-19T07:03:03;4.03;;;2.27;;
11384;SDS011;5747;56.748;13.882;2023-09-19T07:05:37;5.20;;;1.90;;
11384;SDS011;5747;56.748;13.882;2023-09-19T07:08:08;6.77;;;1.83;;
11384;SDS011;5747;56.748;13.882;2023-09-19T07:10:39;6.10;;;2.10;;
11384;SDS011;5747;56.748;13.882;2023-09-19T07:13:08;5.37;;;1.77;;
11384;SDS011;5747;56.748;13.882;2023-09-19T07:15:37;5.20;;;1.80;;
11384;SDS011;5747;56.748;13.882;2023-09-19T07:18:13;6.83;;;2.33;;
11384;SDS011;5747;56.748;13.882;2023-09-19T07:20:43;4.10;;;1.70;;
11384;SDS011;5747;56.748;13.882;2023-09-19T07:23:17;7.70;;;1.73;;
11384;SDS011;5747;56.748;13.882;2023-09-19T07:25:48;7.57;;;2.00;;
11384;SDS011;5747;56.748;13.882;2023-09-19T07:28:17;4.87;;;2.23;;
11384;SDS011;5747;56.748;13.882;2023-09-19T07:30:45;5.03;;;1.73;;
11384;SDS011;5747;56.748;13.882;2023-09-19T07:33:13;9.23;;;1.70;;
11384;SDS011;5747;56.748;13.882;2023-09-19T07:35:44;4.53;;;1.83;;
11384;SDS011;5747;56.748;13.882;2023-09-19T07:38:13;5.43;;;1.53;;
11384;SDS011;5747;56.748;13.882;2023-09-19T07:40:43;5.53;;;1.80;;
11384;SDS011;5747;56.748;13.882;2023-09-19T07:43:11;5.73;;;1.90;;
11384;SDS011;5747;56.748;13.882;2023-09-19T07:45:39;6.07;;;1.77;;
11384;SDS011;5747;56.748;13.882;2023-09-19T07:48:07;7.00;;;1.87;;
11384;SDS011;5747;56.748;13.882;2023-09-19T07:51:03;6.20;;;2.03;;
11384;SDS011;5747;56.748;13.882;2023-09-19T07:53:32;4.63;;;1.50;;
11384;SDS011;5747;56.748;13.882;2023-09-19T07:56:03;5.60;;;1.97;;
11384;SDS011;5747;56.748;13.882;2023-09-19T07:58:33;4.07;;;1.80;;
11384;SDS011;5747;56.748;13.882;2023-09-19T08:01:03;4.60;;;1.67;;
11384;SDS011;5747;56.748;13.882;2023-09-19T08:03:33;6.10;;;2.10;;
11384;SDS011;5747;56.748;13.882;2023-09-19T08:06:01;4.77;;;1.90;;
11384;SDS011;5747;56.748;13.882;2023-09-19T08:08:30;6.07;;;1.80;;
11384;SDS011;5747;56.748;13.882;2023-09-19T08:10:58;7.33;;;2.10;;
11384;SDS011;5747;56.748;13.882;2023-09-19T08:13:29;6.20;;;1.80;;
11384;SDS011;5747;56.748;13.882;2023-09-19T08:15:58;5.70;;;1.80;;
11384;SDS011;5747;56.748;13.882;2023-09-19T08:18:26;8.10;;;1.90;;
11384;SDS011;5747;56.748;13.882;2023-09-19T08:20:56;3.77;;;1.57;;
11384;SDS011;5747;56.748;13.882;2023-09-19T08:23:27;7.80;;;2.13;;
11384;SDS011;5747;56.748;13.882;2023-09-19T08:25:58;5.60;;;2.00;;
11384;SDS011;5747;56.748;13.882;2023-09-19T08:28:30;6.00;;;2.20;;
11384;SDS011;5747;56.748;13.882;2023-09-19T08:31:00;6.37;;;1.90;;
11384;SDS011;5747;56.748;13.882;2023-09-19T08:33:31;8.70;;;2.53;;
11384;SDS011;5747;56.748;13.882;2023-09-19T08:36:00;6.43;;;1.83;;
11384;SDS011;5747;56.748;13.882;2023-09-19T08:38:30;8.27;;;2.50;;
11384;SDS011;5747;56.748;13.882;2023-09-19T08:40:59;6.17;;;2.00;;
11384;SDS011;5747;56.748;13.882;2023-09-19T08:43:30;7.27;;;2.23;;
11384;SDS011;5747;56.748;13.882;2023-09-19T08:46:03;9.87;;;2.40;;
11384;SDS011;5747;56.748;13.882;2023-09-19T08:48:38;4.93;;;1.90;;
11384;SDS011;5747;56.748;13.882;2023-09-19T08:51:12;4.47;;;2.07;;
11384;SDS011;5747;56.748;13.882;2023-09-19T08:53:47;7.33;;;2.03;;
11384;SDS011;5747;56.748;13.882;2023-09-19T08:56:19;6.03;;;1.80;;
11384;SDS011;5747;56.748;13.882;2023-09-19T08:58:51;4.37;;;1.30;;
11384;SDS011;5747;56.748;13.882;2023-09-19T09:01:23;3.07;;;1.30;;
11384;SDS011;5747;56.748;13.882;2023-09-19T09:03:55;7.30;;;1.50;;
11384;SDS011;5747;56.748;13.882;2023-09-19T09:06:25;3.27;;;1.43;;
11384;SDS011;5747;56.748;13.882;2023-09-19T09:08:57;4.20;;;1.30;;
11384;SDS011;5747;56.748;13.882;2023-09-19T09:11:26;7.10;;;1.97;;
11384;SDS011;5747;56.748;13.882;2023-09-19T09:13:56;6.67;;;1.80;;
11384;SDS011;5747;56.748;13.882;2023-09-19T09:16:24;6.90;;;1.80;;
11384;SDS011;5747;56.748;13.882;2023-09-19T09:18:53;4.57;;;1.77;;
11384;SDS011;5747;56.748;13.882;2023-09-19T09:21:21;5.30;;;2.10;;
11384;SDS011;5747;56.748;13.882;2023-09-19T09:23:52;7.57;;;1.83;;
11384;SDS011;5747;56.748;13.882;2023-09-19T09:26:33;9.73;;;2.20;;
11384;SDS011;5747;56.748;13.882;2023-09-19T09:29:10;6.50;;;2.30;;
11384;SDS011;5747;56.748;13.882;2023-09-19T09:31:41;8.00;;;2.27;;
11384;SDS011;5747;56.748;13.882;2023-09-19T09:34:10;8.03;;;2.27;;
11384;SDS011;5747;56.748;13.882;2023-09-19T09:36:40;6.13;;;2.50;;
11384;SDS011;5747;56.748;13.882;2023-09-19T09:39:08;6.60;;;2.20;;
11384;SDS011;5747;56.748;13.882;2023-09-19T09:41:44;5.07;;;2.37;;
11384;SDS011;5747;56.748;13.882;2023-09-19T09:44:14;4.13;;;1.80;;
11384;SDS011;5747;56.748;13.882;2023-09-19T09:46:45;9.57;;;2.43;;
11384;SDS011;5747;56.748;13.882;2023-09-19T09:49:28;6.37;;;2.17;;
11384;SDS011;5747;56.748;13.882;2023-09-19T09:52:01;9.63;;;2.30;;
11384;SDS011;5747;56.748;13.882;2023-09-19T09:54:37;6.00;;;2.37;;
11384;SDS011;5747;56.748;13.882;2023-09-19T09:57:10;7.60;;;2.27;;
11384;SDS011;5747;56.748;13.882;2023-09-19T09:59:48;7.03;;;2.43;;
11384;SDS011;5747;56.748;13.882;2023-09-19T10:02:20;9.87;;;2.23;;
11384;SDS011;5747;56.748;13.882;2023-09-19T10:04:56;4.57;;;2.30;;
11384;SDS011;5747;56.748;13.882;2023-09-19T10:07:41;8.17;;;2.23;;
11384;SDS011;5747;56.748;13.882;2023-09-19T10:10:28;8.53;;;2.70;;
11384;SDS011;5747;56.748;13.882;2023-09-19T10:13:06;6.97;;;2.27;;
11384;SDS011;5747;56.748;13.882;2023-09-19T10:15:40;6.73;;;2.20;;
11384;SDS011;5747;56.748;13.882;2023-09-19T10:18:18;5.43;;;2.07;;
11384;SDS011;5747;56.748;13.882;2023-09-19T10:20:48;12.07;;;2.20;;
11384;SDS011;5747;56.748;13.882;2023-09-19T10:23:17;7.57;;;2.20;;
11384;SDS011;5747;56.748;13.882;2023-09-19T10:25:49;5.97;;;2.00;;
11384;SDS011;5747;56.748;13.882;2023-09-19T10:28:19;7.40;;;2.00;;
11384;SDS011;5747;56.748;13.882;2023-09-19T10:30:50;5.20;;;2.00;;
11384;SDS011;5747;56.748;13.882;2023-09-19T10:33:20;7.40;;;2.00;;
11384;SDS011;5747;56.748;13.882;2023-09-19T10:35:53;7.03;;;1.73;;
11384;SDS011;5747;56.748;13.882;2023-09-19T10:38:22;5.40;;;1.90;;
11384;SDS011;5747;56.748;13.882;2023-09-19T10:40:53;8.00;;;1.67;;
11384;SDS011;5747;56.748;13.882;2023-09-19T10:43:25;3.83;;;1.63;;
11384;SDS011;5747;56.748;13.882;2023-09-19T10:46:03;3.00;;;1.53;;
11384;SDS011;5747;56.748;13.882;2023-09-19T10:48:37;2.13;;;1.40;;
11384;SDS011;5747;56.748;13.882;2023-09-19T10:51:08;7.67;;;1.90;;
11384;SDS011;5747;56.748;13.882;2023-09-19T10:53:43;5.77;;;1.77;;
11384;SDS011;5747;56.748;13.882;2023-09-19T10:56:18;6.13;;;1.70;;
11384;SDS011;5747;56.748;13.882;2023-09-19T10:58:49;6.03;;;2.00;;
11384;SDS011;5747;56.748;13.882;2023-09-19T11:01:19;4.13;;;1.43;;
11384;SDS011;5747;56.748;13.882;2023-09-19T11:03:48;7.20;;;2.00;;
11384;SDS011;5747;56.748;13.882;2023-09-19T11:06:37;5.07;;;1.53;;
11384;SDS011;5747;56.748;13.882;2023-09-19T11:09:08;4.33;;;1.90;;
11384;SDS011;5747;56.748;13.882;2023-09-19T11:11:50;4.83;;;1.30;;
11384;SDS011;5747;56.748;13.882;2023-09-19T11:14:30;5.40;;;1.60;;
11384;SDS011;5747;56.748;13.882;2023-09-19T11:20:20;3.80;;;1.50;;
11384;SDS011;5747;56.748;13.882;2023-09-19T11:23:22;3.83;;;1.47;;
11384;SDS011;5747;56.748;13.882;2023-09-19T11:25:52;3.53;;;1.30;;
11384;SDS011;5747;56.748;13.882;2023-09-19T11:28:27;5.23;;;1.50;;
11384;SDS011;5747;56.748;13.882;2023-09-19T11:30:58;5.03;;;1.43;;
11384;SDS011;5747;56.748;13.882;2023-09-19T11:33:49;5.97;;;1.90;;
11384;SDS011;5747;56.748;13.882;2023-09-19T11:37:11;4.13;;;1.60;;
11384;SDS011;5747;56.748;13.882;2023-09-19T11:40:45;5.97;;;1.47;;
11384;SDS011;5747;56.748;13.882;2023-09-19T11:43:28;6.60;;;1.80;;
11384;SDS011;5747;56.748;13.882;2023-09-19T11:46:06;4.73;;;1.43;;
11384;SDS011;5747;56.748;13.882;2023-09-19T11:48:35;4.40;;;1.50;;
11384;SDS011;5747;56.748;13.882;2023-09-19T11:51:16;7.67;;;1.77;;
11384;SDS011;5747;56.748;13.882;2023-09-19T11:53:50;4.07;;;1.40;;
11384;SDS011;5747;56.748;13.882;2023-09-19T11:56:20;5.93;;;1.63;;
11384;SDS011;5747;56.748;13.882;2023-09-19T11:58:51;3.80;;;1.30;;
11384;SDS011;5747;56.748;13.882;2023-09-19T12:01:22;3.07;;;1.43;;
11384;SDS011;5747;56.748;13.882;2023-09-19T12:03:55;3.30;;;1.20;;
11384;SDS011;5747;56.748;13.882;2023-09-19T12:06:27;3.23;;;1.23;;
11384;SDS011;5747;56.748;13.882;2023-09-19T12:08:56;4.00;;;1.37;;
11384;SDS011;5747;56.748;13.882;2023-09-19T12:11:27;2.83;;;1.30;;
11384;SDS011;5747;56.748;13.882;2023-09-19T12:14:01;4.60;;;1.60;;
11384;SDS011;5747;56.748;13.882;2023-09-19T12:16:30;2.53;;;1.57;;
11384;SDS011;5747;56.748;13.882;2023-09-19T12:21:57;3.93;;;1.60;;
11384;SDS011;5747;56.748;13.882;2023-09-19T12:24:31;4.50;;;1.50;;
11384;SDS011;5747;56.748;13.882;2023-09-19T12:27:03;4.30;;;1.40;;
11384;SDS011;5747;56.748;13.882;2023-09-19T12:29:41;5.93;;;1.40;;
11384;SDS011;5747;56.748;13.882;2023-09-19T12:32:10;5.17;;;1.30;;
11384;SDS011;5747;56.748;13.882;2023-09-19T12:34:39;4.30;;;1.30;;
11384;SDS011;5747;56.748;13.882;2023-09-19T12:37:11;4.83;;;1.40;;
11384;SDS011;5747;56.748;13.882;2023-09-19T12:39:42;4.63;;;1.30;;
11384;SDS011;5747;56.748;13.882;2023-09-19T12:42:15;3.90;;;1.43;;
11384;SDS011;5747;56.748;13.882;2023-09-19T12:44:44;4.47;;;1.30;;
11384;SDS011;5747;56.748;13.882;2023-09-19T12:47:14;6.83;;;1.50;;
11384;SDS011;5747;56.748;13.882;2023-09-19T12:50:05;3.43;;;1.37;;
11384;SDS011;5747;56.748;13.882;2023-09-19T12:52:43;4.33;;;1.10;;
11384;SDS011;5747;56.748;13.882;2023-09-19T12:55:20;3.77;;;1.30;;
11384;SDS011;5747;56.748;13.882;2023-09-19T12:58:00;2.40;;;1.30;;
11384;SDS011;5747;56.748;13.882;2023-09-19T13:00:36;3.13;;;1.40;;
11384;SDS011;5747;56.748;13.882;2023-09-19T13:03:12;3.77;;;1.30;;
11384;SDS011;5747;56.748;13.882;2023-09-19T13:05:49;1.47;;;0.90;;
11384;SDS011;5747;56.748;13.882;2023-09-19T13:08:23;1.73;;;1.33;;
11384;SDS011;5747;56.748;13.882;2023-09-19T13:11:02;1.87;;;1.10;;
11384;SDS011;5747;56.748;13.882;2023-09-19T13:13:37;2.70;;;1.40;;
11384;SDS011;5747;56.748;13.882;2023-09-19T13:16:07;1.80;;;1.17;;
11384;SDS011;5747;56.748;13.882;2023-09-19T13:18:45;1.77;;;1.03;;
11384;SDS011;5747;56.748;13.882;2023-09-19T13:21:17;3.70;;;1.47;;
11384;SDS011;5747;56.748;13.882;2023-09-19T13:24:21;4.40;;;1.20;;
11384;SDS011;5747;56.748;13.882;2023-09-19T13:26:54;3.57;;;1.17;;
11384;SDS011;5747;56.748;13.882;2023-09-19T13:29:22;3.07;;;1.13;;
11384;SDS011;5747;56.748;13.882;2023-09-19T13:31:51;5.03;;;1.67;;
11384;SDS011;5747;56.748;13.882;2023-09-19T13:34:20;4.73;;;1.23;;
11384;SDS011;5747;56.748;13.882;2023-09-19T13:36:48;6.03;;;1.33;;
11384;SDS011;5747;56.748;13.882;2023-09-19T13:39:16;4.80;;;1.40;;
11384;SDS011;5747;56.748;13.882;2023-09-19T13:41:46;1.93;;;1.20;;
11384;SDS011;5747;56.748;13.882;2023-09-19T13:44:15;4.50;;;1.47;;
11384;SDS011;5747;56.748;13.882;2023-09-19T13:46:44;6.60;;;1.47;;
11384;SDS011;5747;56.748;13.882;2023-09-19T13:49:13;4.83;;;1.40;;
11384;SDS011;5747;56.748;13.882;2023-09-19T13:51:42;4.27;;;1.30;;
11384;SDS011;5747;56.748;13.882;2023-09-19T13:54:11;3.00;;;1.27;;
11384;SDS011;5747;56.748;13.882;2023-09-19T13:56:40;5.13;;;1.40;;
11384;SDS011;5747;56.748;13.882;2023-09-19T13:59:10;6.27;;;1.40;;
11384;SDS011;5747;56.748;13.882;2023-09-19T14:01:38;4.60;;;1.50;;
11384;SDS011;5747;56.748;13.882;2023-09-19T14:04:06;3.73;;;1.30;;
11384;SDS011;5747;56.748;13.882;2023-09-19T14:06:35;4.53;;;1.30;;
11384;SDS011;5747;56.748;13.882;2023-09-19T14:09:03;5.50;;;1.43;;
11384;SDS011;5747;56.748;13.882;2023-09-19T14:11:32;10.73;;;1.83;;
11384;SDS011;5747;56.748;13.882;2023-09-19T14:14:00;8.40;;;1.87;;
11384;SDS011;5747;56.748;13.882;2023-09-19T14:16:29;3.23;;;1.30;;
11384;SDS011;5747;56.748;13.882;2023-09-19T14:18:58;6.03;;;1.50;;
11384;SDS011;5747;56.748;13.882;2023-09-19T14:21:26;6.13;;;1.40;;
11384;SDS011;5747;56.748;13.882;2023-09-19T14:23:54;5.87;;;1.37;;
11384;SDS011;5747;56.748;13.882;2023-09-19T14:26:22;4.97;;;1.80;;
11384;SDS011;5747;56.748;13.882;2023-09-19T14:28:50;5.03;;;1.70;;
11384;SDS011;5747;56.748;13.882;2023-09-19T14:31:18;7.00;;;1.30;;
11384;SDS011;5747;56.748;13.882;2023-09-19T14:33:54;4.10;;;1.40;;
11384;SDS011;5747;56.748;13.882;2023-09-19T14:36:23;4.57;;;1.40;;
11384;SDS011;5747;56.748;13.882;2023-09-19T14:38:52;4.97;;;1.40;;
11384;SDS011;5747;56.748;13.882;2023-09-19T14:41:24;4.20;;;1.53;;
11384;SDS011;5747;56.748;13.882;2023-09-19T14:43:52;5.00;;;1.50;;
11384;SDS011;5747;56.748;13.882;2023-09-19T14:46:21;5.87;;;1.67;;
11384;SDS011;5747;56.748;13.882;2023-09-19T14:48:51;6.20;;;1.80;;
11384;SDS011;5747;56.748;13.882;2023-09-19T14:51:20;4.83;;;1.40;;
11384;SDS011;5747;56.748;13.882;2023-09-19T14:53:48;4.73;;;1.20;;
11384;SDS011;5747;56.748;13.882;2023-09-19T14:56:17;6.23;;;1.63;;
11384;SDS011;5747;56.748;13.882;2023-09-19T14:58:46;4.73;;;1.50;;
11384;SDS011;5747;56.748;13.882;2023-09-19T15:01:15;3.23;;;1.20;;
11384;SDS011;5747;56.748;13.882;2023-09-19T15:03:43;4.47;;;1.37;;
11384;SDS011;5747;56.748;13.882;2023-09-19T15:06:13;3.03;;;1.17;;
11384;SDS011;5747;56.748;13.882;2023-09-19T15:08:45;5.17;;;1.30;;
11384;SDS011;5747;56.748;13.882;2023-09-19T15:11:15;4.30;;;1.50;;
11384;SDS011;5747;56.748;13.882;2023-09-19T15:13:44;1.97;;;1.10;;
11384;SDS011;5747;56.748;13.882;2023-09-19T15:16:13;4.90;;;1.30;;
11384;SDS011;5747;56.748;13.882;2023-09-19T15:18:43;4.60;;;1.30;;